Time;durP1;ratioP1;P1;durP2;ratioP2;P2;SDS_P1;SDS_P2;PMS_P1;PMS_P2;Temp;Humidity;BMP_temperature;BMP_pressure;BME280_temperature;BME280_humidity;BME280_pressure;Samples;Min_cycle;Max_cycle;Signal;HPM_P1;HPM_P2
2022/12/08 00:01:43;;;;;;;6.50;1.65;;;1.90;99.90;;;;;;5104220;28;20032;-81
2022/12/08 00:04:11;;;;;;;3.78;1.83;;;1.80;99.90;;;;;;5109303;28;20123;-80
2022/12/08 00:09:32;;;;;;;6.18;2.13;;;1.90;99.90;;;;;;5109255;28;20048;-79
2022/12/08 00:12:12;;;;;;;8.00;1.88;;;1.90;99.90;;;;;;5107590;28;20512;-80
2022/12/08 00:14:39;;;;;;;5.45;1.83;;;1.90;99.90;;;;;;5100991;28;20040;-80
2022/12/08 00:17:06;;;;;;;3.13;1.48;;;1.90;99.90;;;;;;5100631;28;20124;-80
2022/12/08 00:19:32;;;;;;;8.05;2.05;;;1.90;99.90;;;;;;5104097;28;20094;-80
2022/12/08 00:21:58;;;;;;;8.88;1.80;;;1.90;99.90;;;;;;5065630;28;20083;-80
2022/12/08 00:24:30;;;;;;;7.53;2.15;;;1.80;99.90;;;;;;5080464;28;20459;-81
2022/12/08 00:26:55;;;;;;;5.20;2.00;;;1.70;99.90;;;;;;5093690;28;20097;-81
2022/12/08 00:29:21;;;;;;;6.93;2.00;;;1.80;99.90;;;;;;5073252;28;20094;-81
2022/12/08 00:31:47;;;;;;;5.22;2.05;;;1.70;99.90;;;;;;5105627;28;20051;-81
2022/12/08 00:34:14;;;;;;;8.43;2.45;;;1.70;99.90;;;;;;5091732;28;20041;-81
2022/12/08 00:36:40;;;;;;;6.78;2.20;;;1.60;99.90;;;;;;5074015;28;20394;-81
2022/12/08 00:39:06;;;;;;;5.35;2.10;;;1.70;99.90;;;;;;5092947;28;20132;-80
2022/12/08 00:44:17;;;;;;;6.18;2.53;;;1.60;99.90;;;;;;5100898;28;20051;-80
2022/12/08 00:46:44;;;;;;;8.93;2.80;;;1.60;99.90;;;;;;5074553;28;20097;-80
2022/12/08 00:49:10;;;;;;;8.65;2.83;;;1.60;99.90;;;;;;5077481;28;20045;-80
2022/12/08 00:51:36;;;;;;;5.78;2.83;;;1.60;99.90;;;;;;5077820;28;20060;-83
2022/12/08 00:54:03;;;;;;;6.97;3.00;;;1.60;99.90;;;;;;5081741;28;20075;-83
2022/12/08 00:56:28;;;;;;;8.15;3.50;;;1.60;99.90;;;;;;5082715;28;20115;-83
2022/12/08 00:58:54;;;;;;;7.75;3.63;;;1.60;99.90;;;;;;5074557;28;20037;-85
2022/12/08 01:01:20;;;;;;;9.00;3.95;;;1.60;99.90;;;;;;5068734;28;20044;-84
2022/12/08 01:03:45;;;;;;;6.55;3.80;;;1.60;99.90;;;;;;5093985;28;20041;-84
2022/12/08 01:06:11;;;;;;;6.53;3.90;;;1.60;99.90;;;;;;5066678;28;20443;-84
2022/12/08 01:08:38;;;;;;;8.40;4.53;;;1.60;99.90;;;;;;5053460;28;20363;-84
2022/12/08 01:11:13;;;;;;;10.70;4.82;;;1.60;99.90;;;;;;5070536;28;20048;-84
2022/12/08 01:13:39;;;;;;;9.18;4.97;;;1.60;99.90;;;;;;5074083;28;20033;-84
2022/12/08 01:16:05;;;;;;;11.75;5.05;;;1.50;99.90;;;;;;5076035;28;20067;-84
2022/12/08 01:18:32;;;;;;;11.52;4.80;;;1.60;99.90;;;;;;5071489;28;20040;-84
2022/12/08 01:21:05;;;;;;;8.00;5.00;;;1.60;99.90;;;;;;5071002;28;20055;-84
2022/12/08 01:23:32;;;;;;;8.93;5.15;;;1.50;99.90;;;;;;5071243;28;20755;-84
2022/12/08 01:26:03;;;;;;;9.55;5.30;;;1.50;99.90;;;;;;5071487;28;20048;-84
2022/12/08 01:28:30;;;;;;;10.85;5.30;;;1.50;99.90;;;;;;5076116;28;20112;-82
2022/12/08 01:30:56;;;;;;;10.73;5.40;;;1.40;99.90;;;;;;5077763;28;20120;-82
2022/12/08 01:33:22;;;;;;;11.63;5.53;;;1.50;99.90;;;;;;5078774;28;20796;-82
2022/12/08 01:35:48;;;;;;;10.35;5.18;;;1.50;99.90;;;;;;5073781;28;20048;-82
2022/12/08 01:38:13;;;;;;;7.72;5.60;;;1.60;99.90;;;;;;5077188;28;20525;-83
2022/12/08 01:40:39;;;;;;;9.10;5.60;;;1.60;99.90;;;;;;5073227;28;20362;-83
2022/12/08 01:43:05;;;;;;;10.77;6.05;;;1.60;99.90;;;;;;5074191;28;20037;-83
2022/12/08 01:45:31;;;;;;;10.10;6.25;;;1.60;99.90;;;;;;5099284;28;20040;-83
2022/12/08 01:48:02;;;;;;;12.77;6.70;;;1.80;99.90;;;;;;5102131;28;20141;-83
2022/12/08 01:50:32;;;;;;;12.25;5.95;;;1.80;99.90;;;;;;5093675;28;20039;-83
2022/12/08 01:53:03;;;;;;;10.02;6.10;;;1.90;99.90;;;;;;5095565;28;20089;-83
2022/12/08 01:55:35;;;;;;;14.07;6.68;;;1.90;99.90;;;;;;5073937;28;20096;-82
2022/12/08 01:58:31;;;;;;;11.55;6.82;;;2.00;99.90;;;;;;5090070;28;20525;-83
2022/12/08 02:00:57;;;;;;;14.02;6.97;;;2.10;99.90;;;;;;5068498;28;20047;-83
2022/12/08 02:03:37;;;;;;;12.77;6.90;;;2.00;99.90;;;;;;5102656;28;20032;-82
2022/12/08 02:06:03;;;;;;;13.18;7.00;;;2.10;99.90;;;;;;5104245;28;20140;-82
2022/12/08 02:08:30;;;;;;;13.68;6.70;;;2.00;99.90;;;;;;5095348;28;20036;-83
2022/12/08 02:10:56;;;;;;;14.18;7.10;;;2.10;99.90;;;;;;5084552;28;20048;-82
2022/12/08 02:13:23;;;;;;;14.27;7.68;;;2.20;99.90;;;;;;5105702;28;20040;-82
2022/12/08 02:16:00;;;;;;;13.35;6.78;;;2.30;99.90;;;;;;5106731;28;20450;-81
2022/12/08 02:19:03;;;;;;;13.45;8.02;;;2.20;99.90;;;;;;5105475;28;20051;-82
2022/12/08 02:21:53;;;;;;;11.75;6.85;;;2.30;99.90;;;;;;5098982;28;20131;-82
2022/12/08 02:24:24;;;;;;;15.60;6.82;;;2.30;99.90;;;;;;5105204;28;20036;-82
2022/12/08 02:27:08;;;;;;;15.52;7.60;;;2.40;99.90;;;;;;5088245;28;20044;-81
2022/12/08 02:29:46;;;;;;;12.25;7.78;;;2.30;99.90;;;;;;5108342;28;20036;-81
2022/12/08 02:32:21;;;;;;;16.90;7.65;;;2.30;99.90;;;;;;5097902;28;20043;-81
2022/12/08 02:35:01;;;;;;;14.45;7.78;;;2.50;99.90;;;;;;5085010;28;20176;-81
2022/12/08 02:37:39;;;;;;;18.42;8.10;;;2.50;99.90;;;;;;5075765;28;20514;-81
2022/12/08 02:40:33;;;;;;;13.75;8.75;;;2.50;99.90;;;;;;5095552;28;20051;-82
2022/12/08 02:43:04;;;;;;;12.80;8.27;;;2.60;99.90;;;;;;5099556;28;20052;-81
2022/12/08 02:45:46;;;;;;;15.38;8.20;;;2.60;99.90;;;;;;5098998;28;20123;-81
2022/12/08 02:48:13;;;;;;;15.57;8.55;;;2.50;99.90;;;;;;5099834;28;20490;-82
2022/12/08 02:50:39;;;;;;;15.75;9.20;;;2.60;99.90;;;;;;5080883;28;20056;-82
2022/12/08 02:53:05;;;;;;;17.15;8.57;;;2.60;99.90;;;;;;5062690;28;20040;-81
2022/12/08 02:55:43;;;;;;;16.17;8.73;;;2.60;99.90;;;;;;5095743;28;20039;-81
2022/12/08 02:58:29;;;;;;;13.05;8.60;;;2.60;99.90;;;;;;5106874;28;20036;-81
2022/12/08 03:01:31;;;;;;;15.23;9.18;;;2.70;99.90;;;;;;5100676;28;20040;-81
2022/12/08 03:04:08;;;;;;;18.48;9.05;;;2.70;99.90;;;;;;5104374;28;20044;-79
2022/12/08 03:06:44;;;;;;;13.52;8.90;;;2.70;99.90;;;;;;5094514;28;20050;-79
2022/12/08 03:09:27;;;;;;;15.52;8.63;;;2.70;99.90;;;;;;5093668;28;20048;-78
2022/12/08 03:12:16;;;;;;;18.60;9.65;;;2.70;99.90;;;;;;5077345;28;20044;-78
2022/12/08 03:14:46;;;;;;;18.45;9.43;;;2.70;99.90;;;;;;5085174;28;20356;-79
2022/12/08 03:17:16;;;;;;;14.65;9.45;;;2.70;99.90;;;;;;5102523;28;20057;-79
2022/12/08 03:19:44;;;;;;;16.13;9.48;;;2.70;99.90;;;;;;5098113;28;20035;-79
2022/12/08 03:22:12;;;;;;;13.10;9.77;;;2.80;99.90;;;;;;5097156;28;20497;-79
2022/12/08 03:24:40;;;;;;;13.60;8.52;;;2.70;99.90;;;;;;5094790;28;20168;-77
2022/12/08 03:27:08;;;;;;;;;;;2.70;99.90;;;;;;5087519;28;20118;-78
2022/12/08 03:29:34;;;;;;;14.57;9.18;;;2.70;99.90;;;;;;5074749;28;20251;-78
2022/12/08 03:32:07;;;;;;;12.32;7.95;;;2.70;99.90;;;;;;5095667;28;20055;-79
2022/12/08 03:34:34;;;;;;;12.63;8.65;;;2.70;99.90;;;;;;5098060;28;20039;-79
2022/12/08 03:37:01;;;;;;;13.50;8.30;;;2.70;99.90;;;;;;5104958;28;21257;-79
2022/12/08 03:39:27;;;;;;;18.30;8.83;;;2.70;99.90;;;;;;5085124;28;20040;-79
2022/12/08 03:41:52;;;;;;;9.88;7.65;;;2.70;99.90;;;;;;5103272;28;20052;-79
2022/12/08 03:44:18;;;;;;;11.85;8.10;;;2.70;99.90;;;;;;5102526;28;20453;-79
2022/12/08 03:46:44;;;;;;;11.27;7.75;;;2.80;99.90;;;;;;5101453;28;20052;-79
2022/12/08 03:49:10;;;;;;;10.23;7.32;;;2.80;99.90;;;;;;5101871;28;22083;-79
2022/12/08 03:51:36;;;;;;;11.50;7.80;;;2.70;99.90;;;;;;5102612;28;20095;-80
2022/12/08 03:54:02;;;;;;;14.18;8.10;;;2.80;99.90;;;;;;5104340;28;20051;-79
2022/12/08 03:56:31;;;;;;;12.18;8.07;;;2.80;99.90;;;;;;5090161;28;20454;-78
2022/12/08 03:58:57;;;;;;;14.93;8.85;;;2.80;99.90;;;;;;5088524;28;20065;-81
2022/12/08 04:01:23;;;;;;;17.02;10.30;;;2.90;99.90;;;;;;5104160;28;20043;-80
2022/12/08 04:03:49;;;;;;;13.95;9.73;;;2.90;99.90;;;;;;5102390;28;20036;-80
2022/12/08 04:06:15;;;;;;;16.30;10.32;;;2.90;99.90;;;;;;5076017;28;20056;-80
2022/12/08 04:08:41;;;;;;;15.35;10.48;;;2.90;99.90;;;;;;5093992;28;20482;-80
2022/12/08 04:11:07;;;;;;;16.73;10.63;;;2.90;99.90;;;;;;5095138;28;20042;-80
2022/12/08 04:13:34;;;;;;;21.42;11.18;;;2.90;99.90;;;;;;5089502;28;20038;-80
2022/12/08 04:16:00;;;;;;;16.63;11.27;;;2.90;99.90;;;;;;5112349;28;20032;-80
2022/12/08 04:18:25;;;;;;;15.68;11.35;;;2.80;99.90;;;;;;5106514;28;20040;-80
2022/12/08 04:20:51;;;;;;;17.77;12.20;;;2.90;99.90;;;;;;5068784;28;20032;-81
2022/12/08 04:23:17;;;;;;;22.70;13.02;;;2.80;99.90;;;;;;5102037;28;20083;-80
2022/12/08 04:25:42;;;;;;;17.45;11.90;;;2.90;99.90;;;;;;5094606;28;20059;-78
2022/12/08 04:28:08;;;;;;;17.33;12.65;;;2.90;99.90;;;;;;5072663;28;20393;-78
2022/12/08 04:30:34;;;;;;;19.30;12.55;;;2.90;99.90;;;;;;5098864;28;20060;-79
2022/12/08 04:33:00;;;;;;;19.40;12.07;;;2.90;99.90;;;;;;5073058;28;20114;-78
2022/12/08 04:35:27;;;;;;;20.70;12.32;;;3.00;99.90;;;;;;5092380;28;20070;-78
2022/12/08 04:37:53;;;;;;;19.27;11.98;;;2.90;99.90;;;;;;5100808;28;20082;-79
2022/12/08 04:40:19;;;;;;;19.92;12.45;;;3.00;99.90;;;;;;5101396;28;20036;-79
2022/12/08 04:42:44;;;;;;;18.48;12.15;;;2.90;99.90;;;;;;5098075;28;20036;-79
2022/12/08 04:45:10;;;;;;;16.75;11.45;;;2.90;99.90;;;;;;5094198;28;20047;-80
2022/12/08 04:47:36;;;;;;;20.00;11.63;;;3.20;99.90;;;;;;5096696;28;20193;-80
2022/12/08 04:50:02;;;;;;;17.90;11.98;;;3.00;99.90;;;;;;5102038;28;20052;-80
2022/12/08 04:52:28;;;;;;;15.10;10.85;;;2.90;99.90;;;;;;5102273;28;20133;-79
2022/12/08 04:54:53;;;;;;;14.90;10.02;;;2.90;99.90;;;;;;5101325;28;20039;-79
2022/12/08 04:57:19;;;;;;;15.85;9.75;;;2.90;99.90;;;;;;5104058;28;20036;-79
2022/12/08 04:59:44;;;;;;;13.52;9.35;;;3.10;99.90;;;;;;5102914;28;20048;-80
2022/12/08 05:02:10;;;;;;;10.90;7.72;;;2.90;99.90;;;;;;5103212;28;20485;-80
2022/12/08 05:04:36;;;;;;;14.07;8.60;;;3.00;99.90;;;;;;5083878;28;20492;-80
2022/12/08 05:07:01;;;;;;;11.15;8.50;;;2.80;99.90;;;;;;5084875;28;20050;-80
2022/12/08 05:09:27;;;;;;;11.82;8.40;;;3.00;99.90;;;;;;5106289;28;20097;-80
2022/12/08 05:11:52;;;;;;;9.45;7.40;;;2.80;99.90;;;;;;5102204;28;20040;-80
2022/12/08 05:14:18;;;;;;;10.88;8.43;;;2.80;99.90;;;;;;5101847;28;20065;-80
2022/12/08 05:16:45;;;;;;;14.68;9.15;;;2.90;99.90;;;;;;5082476;28;20499;-80
2022/12/08 05:19:11;;;;;;;15.95;9.85;;;2.90;99.90;;;;;;5097210;28;20034;-81
2022/12/08 05:21:37;;;;;;;14.77;9.48;;;3.10;99.90;;;;;;5091778;28;20427;-81
2022/12/08 05:24:03;;;;;;;11.75;8.93;;;2.90;99.90;;;;;;5092866;28;20044;-79
2022/12/08 05:26:29;;;;;;;14.10;9.65;;;3.00;99.90;;;;;;5096560;28;20040;-79
2022/12/08 05:28:54;;;;;;;10.75;8.95;;;2.90;99.90;;;;;;5110829;28;20043;-79
2022/12/08 05:31:20;;;;;;;15.68;9.25;;;2.90;99.90;;;;;;5100147;28;21727;-78
2022/12/08 05:33:48;;;;;;;13.88;8.98;;;3.10;99.90;;;;;;5067088;28;20051;-78
2022/12/08 05:36:14;;;;;;;14.80;9.60;;;2.90;99.90;;;;;;5081804;28;20436;-77
2022/12/08 05:38:40;;;;;;;17.40;9.43;;;3.00;99.90;;;;;;5090430;28;20042;-79
2022/12/08 05:41:08;;;;;;;12.82;8.95;;;3.20;99.90;;;;;;5095740;28;20128;-78
2022/12/08 05:43:34;;;;;;;15.70;9.60;;;3.20;99.90;;;;;;5095109;28;20090;-78
2022/12/08 05:45:59;;;;;;;15.05;9.85;;;3.10;99.90;;;;;;5082158;28;20409;-78
2022/12/08 05:48:25;;;;;;;13.88;9.35;;;3.00;99.90;;;;;;5097770;28;20051;-78
2022/12/08 05:50:51;;;;;;;12.85;9.18;;;3.00;99.90;;;;;;5064210;28;20093;-78
2022/12/08 05:53:18;;;;;;;12.07;9.45;;;3.00;99.90;;;;;;5094335;28;20044;-78
2022/12/08 05:55:45;;;;;;;13.23;9.38;;;3.10;99.90;;;;;;5097466;28;20036;-78
2022/12/08 05:58:17;;;;;;;14.38;8.50;;;3.00;99.90;;;;;;5064280;28;20366;-79
2022/12/08 06:00:43;;;;;;;14.40;9.00;;;3.00;99.90;;;;;;5102175;28;20040;-81
2022/12/08 06:03:14;;;;;;;13.35;9.18;;;3.00;99.90;;;;;;5089681;28;20059;-80
2022/12/08 06:05:40;;;;;;;11.88;8.13;;;2.90;99.90;;;;;;5071830;28;20379;-81
2022/12/08 06:08:06;;;;;;;11.70;8.35;;;2.90;99.90;;;;;;5073980;28;20044;-81
2022/12/08 06:10:31;;;;;;;11.45;8.75;;;2.90;99.90;;;;;;5110050;28;20050;-81
2022/12/08 06:12:57;;;;;;;14.65;8.20;;;2.80;99.90;;;;;;5103863;28;20063;-81
2022/12/08 06:15:23;;;;;;;10.25;7.78;;;2.90;99.90;;;;;;5105403;28;20036;-79
2022/12/08 06:17:48;;;;;;;14.30;7.80;;;2.80;99.90;;;;;;5085301;28;20040;-80
2022/12/08 06:20:14;;;;;;;16.05;8.10;;;2.70;99.90;;;;;;5103388;28;20415;-79
2022/12/08 06:22:40;;;;;;;11.05;7.80;;;2.80;99.90;;;;;;5103141;28;20036;-80
2022/12/08 06:25:06;;;;;;;11.60;7.43;;;2.70;99.90;;;;;;5097456;28;20089;-79
2022/12/08 06:27:32;;;;;;;9.70;7.35;;;2.80;99.90;;;;;;5076961;28;20044;-78
2022/12/08 06:29:58;;;;;;;14.15;7.13;;;2.80;99.90;;;;;;5075370;28;20035;-79
2022/12/08 06:32:24;;;;;;;11.27;6.72;;;2.80;99.90;;;;;;5094839;28;20093;-81
2022/12/08 06:34:49;;;;;;;8.52;6.65;;;2.70;99.90;;;;;;5069405;28;20067;-77
2022/12/08 06:37:15;;;;;;;12.25;7.03;;;2.70;99.90;;;;;;5086018;28;20155;-78
2022/12/08 06:39:40;;;;;;;12.20;6.40;;;2.80;99.90;;;;;;5085887;28;20200;-76
2022/12/08 06:44:51;;;;;;;12.48;6.07;;;2.70;99.90;;;;;;5095172;28;20052;-79
2022/12/08 06:47:16;;;;;;;10.50;5.53;;;2.80;99.90;;;;;;5090858;28;20047;-79
2022/12/08 06:49:42;;;;;;;10.77;5.88;;;2.70;99.90;;;;;;5089290;28;20109;-77
2022/12/08 06:52:07;;;;;;;7.63;4.93;;;2.70;99.90;;;;;;5089825;28;20544;-77
2022/12/08 06:54:33;;;;;;;10.55;4.75;;;2.70;99.90;;;;;;5088173;28;20055;-78
2022/12/08 06:56:59;;;;;;;6.18;4.32;;;2.80;99.90;;;;;;5073330;28;20071;-76
2022/12/08 06:59:25;;;;;;;4.75;3.85;;;2.70;99.90;;;;;;5067682;28;20048;-75
2022/12/08 07:01:51;;;;;;;7.38;3.70;;;2.60;99.90;;;;;;5092651;28;20043;-79
2022/12/08 07:04:17;;;;;;;4.75;3.40;;;2.70;99.90;;;;;;5085777;28;20554;-79
2022/12/08 07:06:43;;;;;;;7.53;3.38;;;2.60;99.90;;;;;;5087046;28;20178;-79
2022/12/08 07:09:09;;;;;;;5.25;3.70;;;2.60;99.90;;;;;;5070399;28;20046;-79
2022/12/08 07:11:36;;;;;;;8.13;3.22;;;2.60;99.90;;;;;;5088815;28;20489;-79
2022/12/08 07:14:02;;;;;;;7.00;3.72;;;2.60;99.90;;;;;;5100791;28;20038;-78
2022/12/08 07:16:27;;;;;;;6.63;3.55;;;2.60;99.90;;;;;;5095747;28;20400;-78
2022/12/08 07:18:53;;;;;;;6.32;3.25;;;2.50;99.90;;;;;;5091637;28;20109;-78
2022/12/08 07:21:19;;;;;;;6.82;3.30;;;2.50;99.90;;;;;;5088411;28;20084;-78
2022/12/08 07:23:46;;;;;;;5.53;3.17;;;2.50;99.90;;;;;;5091576;28;20043;-78
2022/12/08 07:26:12;;;;;;;5.72;3.22;;;2.50;99.90;;;;;;5092646;28;20032;-78
2022/12/08 07:28:39;;;;;;;6.35;3.38;;;2.50;99.90;;;;;;5086418;28;20093;-78
2022/12/08 07:31:06;;;;;;;4.43;3.00;;;2.60;99.90;;;;;;5087450;28;20048;-78
2022/12/08 07:33:34;;;;;;;6.88;2.55;;;2.50;99.90;;;;;;5089048;28;20040;-77
2022/12/08 07:36:04;;;;;;;13.88;3.13;;;2.60;99.90;;;;;;5093488;28;20088;-77
2022/12/08 07:38:30;;;;;;;7.95;2.90;;;2.50;99.90;;;;;;5093755;28;20470;-77
2022/12/08 07:40:56;;;;;;;10.27;2.83;;;2.50;99.90;;;;;;5093519;28;20043;-77
2022/12/08 07:43:22;;;;;;;4.70;2.40;;;2.60;99.90;;;;;;5088060;28;20043;-78
2022/12/08 07:45:49;;;;;;;4.93;2.42;;;2.50;99.90;;;;;;5089286;28;20068;-78
2022/12/08 07:48:15;;;;;;;3.92;2.40;;;2.60;99.90;;;;;;5053662;28;20091;-78
2022/12/08 07:50:41;;;;;;;5.40;2.30;;;2.60;99.90;;;;;;5074270;28;20040;-78
2022/12/08 07:53:07;;;;;;;4.70;2.50;;;2.60;99.90;;;;;;5077994;28;20044;-77
2022/12/08 07:55:33;;;;;;;4.65;2.65;;;2.60;99.90;;;;;;5096841;28;20040;-78
2022/12/08 07:57:59;;;;;;;5.60;2.90;;;2.60;99.90;;;;;;5094473;28;20119;-78
2022/12/08 08:00:25;;;;;;;7.57;2.70;;;2.70;99.90;;;;;;5077187;28;20094;-78
2022/12/08 08:02:50;;;;;;;5.10;2.90;;;2.60;99.90;;;;;;5092356;28;20036;-78
2022/12/08 08:05:16;;;;;;;5.70;2.80;;;2.70;99.90;;;;;;5090464;28;20051;-78
2022/12/08 08:07:42;;;;;;;5.97;2.65;;;2.60;99.90;;;;;;5071620;28;20124;-78
2022/12/08 08:10:10;;;;;;;7.07;3.30;;;2.60;99.90;;;;;;5071959;28;20051;-78
2022/12/08 08:12:36;;;;;;;6.65;3.15;;;2.70;99.90;;;;;;5093038;28;20047;-79
2022/12/08 08:15:06;;;;;;;4.65;3.22;;;2.70;99.90;;;;;;5075631;28;20046;-79
2022/12/08 08:17:32;;;;;;;7.70;3.60;;;2.60;99.90;;;;;;5097672;28;20046;-78
2022/12/08 08:19:58;;;;;;;6.00;3.38;;;2.60;99.90;;;;;;5100834;28;20162;-79
2022/12/08 08:22:24;;;;;;;10.77;3.60;;;2.70;99.90;;;;;;5083318;28;20063;-79
2022/12/08 08:24:50;;;;;;;11.38;3.53;;;2.60;99.90;;;;;;5076638;28;20040;-79
2022/12/08 08:27:16;;;;;;;7.70;3.33;;;2.60;99.90;;;;;;5094194;28;20124;-79
2022/12/08 08:29:42;;;;;;;11.95;4.40;;;2.60;99.90;;;;;;5086412;28;20049;-79
2022/12/08 08:32:07;;;;;;;5.60;2.90;;;2.60;99.90;;;;;;5104304;28;21482;-80
2022/12/08 08:34:33;;;;;;;5.55;3.25;;;2.70;99.90;;;;;;5101594;28;20044;-79
2022/12/08 08:36:59;;;;;;;7.13;3.05;;;2.60;99.90;;;;;;5090127;28;20046;-79
2022/12/08 08:39:25;;;;;;;9.45;3.03;;;2.60;99.90;;;;;;5097253;28;20072;-79
2022/12/08 08:41:51;;;;;;;4.93;3.08;;;2.70;99.90;;;;;;5094885;28;20044;-80
2022/12/08 08:44:17;;;;;;;4.97;3.00;;;2.60;99.90;;;;;;5095222;28;20044;-79
2022/12/08 08:46:42;;;;;;;4.45;2.75;;;2.70;99.90;;;;;;5095373;28;20051;-79
2022/12/08 08:49:08;;;;;;;5.57;2.70;;;2.70;99.90;;;;;;5097880;28;21464;-80
2022/12/08 08:51:33;;;;;;;9.35;3.10;;;2.70;99.90;;;;;;5103674;28;20135;-80
2022/12/08 08:53:59;;;;;;;4.50;2.78;;;2.70;99.90;;;;;;5081796;28;20089;-79
2022/12/08 08:56:25;;;;;;;4.22;2.30;;;2.70;99.90;;;;;;5076059;28;20720;-79
2022/12/08 08:58:51;;;;;;;3.70;2.50;;;2.70;99.90;;;;;;5076727;28;20086;-79
2022/12/08 09:01:19;;;;;;;3.67;2.40;;;2.70;99.90;;;;;;5091533;28;20052;-79
2022/12/08 09:03:46;;;;;;;4.57;2.40;;;2.70;99.90;;;;;;5063747;28;20059;-78
2022/12/08 09:06:13;;;;;;;2.83;1.83;;;2.80;99.90;;;;;;5090619;28;20177;-77
2022/12/08 09:08:39;;;;;;;4.78;1.90;;;2.80;99.90;;;;;;5092759;28;20064;-77
2022/12/08 09:11:06;;;;;;;4.35;1.80;;;2.80;99.90;;;;;;5089219;28;20048;-78
2022/12/08 09:13:31;;;;;;;2.22;1.75;;;2.80;99.90;;;;;;5092122;28;20039;-77
2022/12/08 09:16:00;;;;;;;3.88;1.80;;;2.90;99.90;;;;;;5089145;28;20028;-77
2022/12/08 09:18:26;;;;;;;3.13;1.83;;;2.90;99.90;;;;;;5094200;28;20063;-77
2022/12/08 09:20:52;;;;;;;4.38;1.80;;;2.90;99.90;;;;;;5089286;28;20075;-78
2022/12/08 09:23:18;;;;;;;5.20;1.95;;;3.00;99.90;;;;;;5089655;28;20052;-77
2022/12/08 09:25:44;;;;;;;6.25;1.77;;;3.00;99.90;;;;;;5058158;28;20047;-77
2022/12/08 09:28:11;;;;;;;4.93;1.98;;;2.90;99.90;;;;;;5102912;28;20136;-76
2022/12/08 09:30:37;;;;;;;5.25;2.05;;;3.00;99.90;;;;;;5107240;28;20044;-77
2022/12/08 09:33:02;;;;;;;4.47;1.92;;;3.00;99.90;;;;;;5102846;28;20120;-77
2022/12/08 09:35:28;;;;;;;3.28;1.50;;;3.00;99.90;;;;;;5096437;28;20462;-77
2022/12/08 09:37:54;;;;;;;2.75;1.80;;;3.10;99.90;;;;;;5085622;28;20032;-77
2022/12/08 09:40:22;;;;;;;2.50;1.80;;;3.20;99.90;;;;;;5082344;28;20493;-77
2022/12/08 09:42:51;;;;;;;3.75;1.60;;;;;;;;;;5074836;28;20111;-77
2022/12/08 09:45:18;;;;;;;5.05;1.85;;;3.20;99.90;;;;;;5095992;28;20048;-77
2022/12/08 09:48:01;;;;;;;6.63;2.20;;;3.20;99.90;;;;;;5095916;28;20044;-78
2022/12/08 09:50:51;;;;;;;6.57;1.75;;;3.20;99.90;;;;;;5075985;28;20426;-77
2022/12/08 09:53:26;;;;;;;3.70;2.13;;;3.30;99.90;;;;;;5064357;28;20127;-77
2022/12/08 09:55:56;;;;;;;1.80;1.70;;;3.30;99.90;;;;;;5092276;28;20058;-77
2022/12/08 09:58:52;;;;;;;8.75;2.10;;;3.30;99.90;;;;;;5075936;28;20044;-77
2022/12/08 10:01:20;;;;;;;4.05;2.25;;;3.30;99.90;;;;;;5090230;28;20036;-77
2022/12/08 10:03:46;;;;;;;8.95;2.30;;;3.30;99.90;;;;;;5087906;28;20119;-77
2022/12/08 10:06:58;;;;;;;14.05;3.00;;;3.40;99.90;;;;;;5071450;28;20032;-77
2022/12/08 10:09:40;;;;;;;14.02;3.00;;;3.50;99.90;;;;;;5023357;28;20061;-77
2022/12/08 10:12:08;;;;;;;14.63;2.90;;;3.50;99.90;;;;;;5002700;28;20068;-77
2022/12/08 10:15:12;;;;;;;8.98;2.60;;;3.60;99.90;;;;;;5024112;28;20077;-77
2022/12/08 10:17:47;;;;;;;7.07;2.50;;;3.60;99.90;;;;;;5023147;28;20042;-77
2022/12/08 10:20:17;;;;;;;12.25;2.80;;;3.70;99.90;;;;;;4999345;28;20050;-77
2022/12/08 10:22:45;;;;;;;12.27;2.65;;;3.70;99.90;;;;;;5031874;28;20169;-77
2022/12/08 10:25:10;;;;;;;12.23;3.03;;;3.70;99.90;;;;;;5031726;28;20045;-77
2022/12/08 10:27:36;;;;;;;7.50;3.03;;;3.70;99.90;;;;;;5026670;28;20378;-77
2022/12/08 10:30:13;;;;;;;14.13;3.78;;;3.70;99.90;;;;;;5006022;28;20136;-77
2022/12/08 10:32:43;;;;;;;11.05;3.50;;;3.70;99.90;;;;;;5031423;28;20056;-78
2022/12/08 10:35:13;;;;;;;8.00;3.20;;;3.80;99.90;;;;;;5036188;28;20038;-77
2022/12/08 10:37:39;;;;;;;7.80;3.55;;;3.80;99.90;;;;;;5040342;28;20038;-74
2022/12/08 10:40:17;;;;;;;14.13;3.78;;;3.80;99.90;;;;;;5070814;28;20059;-75
2022/12/08 10:42:49;;;;;;;10.50;3.90;;;3.80;99.90;;;;;;5092808;28;20070;-77
2022/12/08 10:45:28;;;;;;;12.23;3.97;;;3.80;99.90;;;;;;5098733;28;20111;-76
2022/12/08 10:48:04;;;;;;;9.05;3.90;;;3.70;99.90;;;;;;5097833;28;20051;-75
2022/12/08 10:50:34;;;;;;;9.30;4.10;;;3.70;99.90;;;;;;5085021;28;20102;-75
2022/12/08 10:53:06;;;;;;;12.65;4.30;;;3.60;99.90;;;;;;5059770;28;20073;-77
2022/12/08 10:56:08;;;;;;;8.73;4.43;;;3.70;99.90;;;;;;5092292;28;20787;-76
2022/12/08 10:58:35;;;;;;;7.93;4.60;;;3.70;99.90;;;;;;5051889;28;20056;-76
2022/12/08 11:01:25;;;;;;;6.35;4.68;;;3.70;99.90;;;;;;5087539;28;20039;-76
2022/12/08 11:03:57;;;;;;;7.05;4.63;;;3.70;99.90;;;;;;5095390;28;20401;-76
2022/12/08 11:06:29;;;;;;;7.65;4.85;;;3.80;99.90;;;;;;5073739;28;20123;-75
2022/12/08 11:08:57;;;;;;;9.38;5.13;;;3.80;99.90;;;;;;5078485;28;20123;-75
2022/12/08 11:11:42;;;;;;;9.25;4.90;;;3.90;99.90;;;;;;5085764;28;20044;-76
2022/12/08 11:14:14;;;;;;;11.68;5.18;;;3.90;99.90;;;;;;5093407;28;20059;-77
2022/12/08 11:16:41;;;;;;;9.30;5.20;;;3.90;99.90;;;;;;5083138;28;20378;-77
2022/12/08 11:19:14;;;;;;;8.03;4.90;;;4.00;99.90;;;;;;5089027;28;20419;-76
2022/12/08 11:21:41;;;;;;;7.72;5.28;;;4.00;99.90;;;;;;5064697;28;20363;-75
2022/12/08 11:24:13;;;;;;;9.98;5.25;;;4.00;99.90;;;;;;5066694;28;20042;-76
2022/12/08 11:26:42;;;;;;;12.40;5.72;;;4.00;99.90;;;;;;5086067;28;20044;-76
2022/12/08 11:29:11;;;;;;;7.55;5.38;;;4.00;99.90;;;;;;5086750;28;20044;-75
2022/12/08 11:31:48;;;;;;;14.43;5.90;;;4.00;99.90;;;;;;5093096;28;20085;-77
2022/12/08 11:34:45;;;;;;;8.45;5.20;;;4.00;99.90;;;;;;5093910;28;20052;-76
2022/12/08 11:37:20;;;;;;;6.28;4.95;;;4.00;99.90;;;;;;5071875;28;20094;-77
2022/12/08 11:39:49;;;;;;;7.30;5.03;;;3.90;99.90;;;;;;5093556;28;20047;-77
2022/12/08 11:42:20;;;;;;;7.07;4.97;;;3.90;99.90;;;;;;5090393;28;20044;-76
2022/12/08 11:44:53;;;;;;;9.73;5.30;;;3.90;99.90;;;;;;5084567;28;20049;-76
2022/12/08 11:47:27;;;;;;;6.18;4.47;;;3.80;99.90;;;;;;5080742;28;20048;-76
2022/12/08 11:50:02;;;;;;;6.95;5.45;;;3.70;99.90;;;;;;5080685;28;20529;-76
2022/12/08 11:52:44;;;;;;;7.90;5.40;;;3.70;99.90;;;;;;5089010;28;20040;-76
2022/12/08 11:55:30;;;;;;;7.45;5.15;;;3.70;99.90;;;;;;5095099;28;20429;-77
2022/12/08 11:57:59;;;;;;;7.22;5.60;;;3.70;99.90;;;;;;5089921;28;20527;-77
2022/12/08 12:00:25;;;;;;;7.00;5.28;;;3.80;99.90;;;;;;5086327;28;20043;-77
2022/12/08 12:03:03;;;;;;;11.45;5.63;;;3.70;99.90;;;;;;5085920;28;20036;-77
2022/12/08 12:05:59;;;;;;;7.65;5.38;;;3.70;99.90;;;;;;5090189;28;20048;-77
2022/12/08 12:08:33;;;;;;;13.75;5.70;;;3.70;99.90;;;;;;5060932;28;21896;-76
2022/12/08 12:14:34;;;;;;;16.60;5.70;;;3.60;99.90;;;;;;5093536;28;20112;-76
2022/12/08 12:17:06;;;;;;;15.20;5.82;;;3.50;99.90;;;;;;5069683;28;20062;-76
2022/12/08 12:19:35;;;;;;;12.13;5.38;;;3.50;99.90;;;;;;5088755;28;20119;-76
2022/12/08 12:22:16;;;;;;;18.60;5.65;;;3.50;99.90;;;;;;5063074;28;20028;-76
2022/12/08 12:24:46;;;;;;;26.33;6.38;;;3.40;99.90;;;;;;5090835;28;20513;-77
2022/12/08 12:27:14;;;;;;;14.40;5.60;;;3.40;99.90;;;;;;5077047;28;20380;-76
2022/12/08 12:29:58;;;;;;;11.13;5.53;;;3.40;99.90;;;;;;5091388;28;20043;-76
2022/12/08 12:32:26;;;;;;;12.45;5.28;;;3.30;99.90;;;;;;5068621;28;20059;-76
2022/12/08 12:34:55;;;;;;;15.85;6.10;;;3.20;99.90;;;;;;5089702;28;20040;-77
2022/12/08 12:37:34;;;;;;;17.52;5.55;;;3.20;99.90;;;;;;5062094;28;20033;-77
2022/12/08 12:40:06;;;;;;;13.80;5.57;;;3.20;99.90;;;;;;5078005;28;20554;-77
2022/12/08 12:42:54;;;;;;;11.50;5.57;;;3.20;99.90;;;;;;5090919;28;20047;-76
2022/12/08 12:45:19;;;;;;;10.95;5.35;;;3.20;99.90;;;;;;5067891;28;20059;-77
2022/12/08 12:48:11;;;;;;;9.57;5.30;;;3.20;99.90;;;;;;5097703;28;20052;-76
2022/12/08 12:50:46;;;;;;;14.73;5.25;;;3.20;99.90;;;;;;5084505;28;20414;-77
2022/12/08 12:53:15;;;;;;;13.75;5.70;;;3.20;99.90;;;;;;5073851;28;20080;-77
2022/12/08 12:55:58;;;;;;;12.15;5.35;;;3.20;99.90;;;;;;5069973;28;20052;-77
2022/12/08 12:58:27;;;;;;;8.20;5.32;;;3.30;99.90;;;;;;5067573;28;20432;-77
2022/12/08 13:01:10;;;;;;;6.88;5.15;;;3.40;99.90;;;;;;5069101;28;20093;-76
2022/12/08 13:03:48;;;;;;;9.85;5.10;;;3.40;99.90;;;;;;5075556;28;20056;-77
2022/12/08 13:06:22;;;;;;;9.23;5.57;;;3.40;99.90;;;;;;5078052;28;20075;-76
2022/12/08 13:08:58;;;;;;;8.35;5.95;;;3.40;99.90;;;;;;5050317;28;20123;-76
2022/12/08 13:11:24;;;;;;;10.98;5.70;;;3.50;99.90;;;;;;5080827;28;20051;-77
2022/12/08 13:14:03;;;;;;;8.80;5.03;;;3.50;99.90;;;;;;5085318;28;20036;-77
2022/12/08 13:16:38;;;;;;;10.93;6.15;;;3.50;99.90;;;;;;5081066;28;20044;-77